Friday, April 20, 2018, 10:42 AM GMT
Back to Local

CYZX, Greenwood, N. S.

Location: , , Canada Lat: 44.983
Local Time: 10:42 AM GMT (10:42 GMT) Lon: -64.917
Time Zone: GMT Elev: 91 ft

Show me the last for .
Show Coded

Time T Td Feel RH Dir Speed Gust Alt SLP Vis Weather Sky Remarks
2018-04-20 10:10 36 36 29 100 40° 8 - 29.66 29.66 8 -RA SCT007 OVC012 None
2018-04-20 10:00 36 34 31 93 50° 6 - 29.65 29.65 8 -RA SCT007 OVC016 None
2018-04-20 09:50 36 34 29 93 50° 8 - 29.65 29.65 10 -RA SCT008 OVC018 None
2018-04-20 09:00 37 34 35 86 60° 3 - 29.64 29.65 12 -RA FEW011 OVC018 None
2018-04-20 08:00 37 36 35 93 20° 3 - 29.64 29.65 10 -RA SCT011 OVC016 None
2018-04-20 07:00 37 36 - 93 250° 2 - 29.65 29.65 8 -RA SCT011 OVC016 None
2018-04-20 06:00 37 36 - 93 270° 2 - 29.65 29.65 8 -RA SCT011 OVC016 None
2018-04-20 05:00 37 36 35 93 50° 3 - 29.64 29.64 10 -RA OVC016 None
2018-04-20 04:00 37 36 32 93 20° 7 - 29.64 29.64 10 -RA BKN016 OVC028 None
2018-04-20 03:34 37 36 32 93 20° 7 - 29.65 29.65 8 -RA SCT012 OVC016 None
2018-04-20 03:00 37 36 35 93 10° 3 - 29.66 29.66 8 -RA SCT014 OVC026 None
2018-04-20 02:00 39 36 34 86 10° 8 - 29.65 29.65 8 -RA SCT013 OVC026 None
2018-04-20 01:00 39 37 36 93 360° 5 - 29.68 29.69 8 -RA SCT016 OVC026 None
2018-04-20 00:00 39 37 37 93 310° 3 - 29.70 29.70 8 -RA SCT017 OVC026 None
2018-04-19 23:00 41 39 - 93 - Calm - 29.67 29.67 8 -RA SCT018 OVC026 None
2018-04-19 22:00 43 39 41 86 350° 3 - 29.67 29.67 8 -RA FEW009 SCT022 OVC030 None
2018-04-19 21:00 43 39 39 86 10° 7 - 29.69 29.69 8 -RA FEW009 SCT022 OVC030 None
2018-04-19 20:32 43 39 41 86 10° 3 - 29.69 29.69 8 -RA FEW009 BKN030 OVC080 None
2018-04-19 20:00 46 41 44 81 320° 5 - 29.68 29.69 10 -RA BKN030 OVC100 None
2018-04-19 19:00 48 39 46 70 320° 5 - 29.70 29.70 15 -RA OVC030 None
2018-04-19 18:44 48 36 46 61 300° 6 - 29.70 29.70 15 OVC030 None
2018-04-19 18:00 48 36 46 61 300° 6 - 29.70 29.70 15 FEW040 SCT080 BKN160 None
2018-04-19 17:00 48 37 47 66 270° 3 - 29.70 29.70 15 SCT040 BKN080 BKN140 None
2018-04-19 16:00 48 36 46 61 260° 6 - 29.71 29.71 15 FEW040 BKN080 BKN140 None
2018-04-19 15:28 48 34 46 57 300° 6 - 29.71 29.71 15 SCT030 BKN080 None
2018-04-19 15:00 46 36 39 65 290° 3 20 29.71 29.71 15 -RA BKN030 BKN070 None
2018-04-19 14:00 46 34 40 61 250° 14 - 29.71 29.72 15 SCT040 BKN070 None
2018-04-19 13:00 43 36 39 75 270° 6 - 29.70 29.70 15 FEW040 BKN080 None
2018-04-19 12:41 43 36 39 75 260° 7 - 29.71 29.71 15 FEW030 BKN080 None
2018-04-19 12:00 37 36 35 93 270° 3 - 29.71 29.71 15 -SHRA OVC070 None
2018-04-19 11:40 37 36 - 93 270° 2 - 29.70 29.70 15 -SHRA OVC070 None
2018-04-19 11:00 37 34 - 86 270° 2 - 29.68 29.68 15 OVC060 None

Support USWX by starting your Amazon purchase here.